Startpagina
METAR-TAF:

METAR-TAF

Vliegvelden :

Deauville, Frankrijk

breedte: 49-21-55N, lengte: 000-09-16E, hoogte: 146 m

Actueel weer

Dit bericht is 30 minuten geleden gemaakt, om 04:30 UTC
Wind 10 kt uit het westnoordwesten, variërend tussen het westen en het noordnoordwesten
Temperatuur 11°C
Vochtigheid 71%
Druk 1003 hPa
Zicht 10 km of meer

METAR: LFRG 060430Z AUTO 30010KT 260V330 9999 FEW019/// BKN025/// BKN038/// ///TCU 11/06 Q1003

Tijdstip: 07:00 (05:00 UTC)

Verwachting

Dit bericht is 15 uur en het 0 minuten geleden gemaakt, om 14:00 UTC
Verwachting geldig van 05 om 15 UTC tot 05 om 24 UTC
Wind 15 kt uit het westnoordwesten met uitschieters tot 30 kt
Zicht 10 km of meer
Verspreide wolken op 3000 ft
Kans 30% :
Tijdelijke
van 05 om 15 UTC tot 05 om 19 UTC
Zicht: 5000 m
regenbuien
Kans 40% :
Tijdelijke
van 05 om 19 UTC tot 05 om 24 UTC
Zicht: 5000 m
Gebroken wolken op 1400 ft
regen

TAF: LFRG 051400Z 0515/0524 29015G30KT 9999 SCT030 PROB30 TEMPO 0515/0519 5000 SHRA PROB40 TEMPO 0519/0524 5000 RA BKN014

Waarnemingen en weersverwachtingen van meer dan 4000 vliegvelden (METAR en TAF).

De beschikbare stations zijn de gele en rode punten op de kaart.

Ga met uw muis naar het station om de naam te zien.

Klik dan om waarnemingen en weersverwachtingen te zien.

kaart wijzigen: klik op de groene knoppen met een zwart kruis om in te zoomen, op de groene knop met een streepje om uit te zoomen of op de groene pijlen voor aangrenzende kaarten.


METAR-TAF: